sensor_id;sensor_type;location;lat;lon;timestamp;pressure;altitude;pressure_sealevel;temperature;humidity
75425;BME280;64007;50.632;13.700;2024-02-21T00:00:53;98664.16;;;6.27;100.00
75425;BME280;64007;50.632;13.700;2024-02-21T00:03:38;98657.19;;;6.26;100.00
75425;BME280;64007;50.632;13.700;2024-02-21T00:06:04;98657.19;;;6.26;100.00
75425;BME280;64007;50.632;13.700;2024-02-21T00:08:30;98653.75;;;6.24;100.00
75425;BME280;64007;50.632;13.700;2024-02-21T00:10:55;98652.22;;;6.20;100.00
75425;BME280;64007;50.632;13.700;2024-02-21T00:13:21;98653.41;;;6.15;100.00
75425;BME280;64007;50.632;13.700;2024-02-21T00:15:47;98647.44;;;6.11;100.00
75425;BME280;64007;50.632;13.700;2024-02-21T00:18:12;98648.38;;;6.10;100.00
75425;BME280;64007;50.632;13.700;2024-02-21T00:20:38;98636.09;;;6.09;100.00
75425;BME280;64007;50.632;13.700;2024-02-21T00:23:04;98637.88;;;6.09;100.00
75425;BME280;64007;50.632;13.700;2024-02-21T00:25:29;98624.13;;;6.19;100.00
75425;BME280;64007;50.632;13.700;2024-02-21T00:27:55;98627.94;;;6.14;100.00
75425;BME280;64007;50.632;13.700;2024-02-21T00:30:21;98623.06;;;6.06;100.00
75425;BME280;64007;50.632;13.700;2024-02-21T00:32:47;98620.69;;;6.02;100.00
75425;BME280;64007;50.632;13.700;2024-02-21T00:35:13;98618.25;;;5.97;100.00
75425;BME280;64007;50.632;13.700;2024-02-21T00:37:39;98619.03;;;5.99;100.00
75425;BME280;64007;50.632;13.700;2024-02-21T00:40:05;98615.59;;;5.97;100.00
75425;BME280;64007;50.632;13.700;2024-02-21T00:42:31;98619.34;;;5.93;100.00
75425;BME280;64007;50.632;13.700;2024-02-21T00:44:58;98615.28;;;5.86;100.00
75425;BME280;64007;50.632;13.700;2024-02-21T00:47:23;98612.91;;;5.81;100.00
75425;BME280;64007;50.632;13.700;2024-02-21T00:49:49;98614.06;;;5.76;100.00
75425;BME280;64007;50.632;13.700;2024-02-21T00:52:15;98604.69;;;5.70;100.00
75425;BME280;64007;50.632;13.700;2024-02-21T00:54:40;98605.88;;;5.64;100.00
75425;BME280;64007;50.632;13.700;2024-02-21T00:57:06;98608.72;;;5.60;100.00
75425;BME280;64007;50.632;13.700;2024-02-21T00:59:32;98604.00;;;5.49;100.00
75425;BME280;64007;50.632;13.700;2024-02-21T01:01:58;98602.91;;;5.53;100.00
75425;BME280;64007;50.632;13.700;2024-02-21T01:04:24;98596.09;;;5.49;100.00
75425;BME280;64007;50.632;13.700;2024-02-21T01:06:50;98596.09;;;5.49;100.00
75425;BME280;64007;50.632;13.700;2024-02-21T01:09:16;98597.78;;;5.50;100.00
75425;BME280;64007;50.632;13.700;2024-02-21T01:11:41;98583.34;;;5.57;100.00
75425;BME280;64007;50.632;13.700;2024-02-21T01:14:07;98580.34;;;5.48;100.00
75425;BME280;64007;50.632;13.700;2024-02-21T01:16:33;98583.28;;;5.42;100.00
75425;BME280;64007;50.632;13.700;2024-02-21T01:18:58;98574.38;;;5.44;100.00
75425;BME280;64007;50.632;13.700;2024-02-21T01:21:24;98572.25;;;5.51;100.00
75425;BME280;64007;50.632;13.700;2024-02-21T01:23:50;98574.59;;;5.40;100.00
75425;BME280;64007;50.632;13.700;2024-02-21T01:26:15;98576.72;;;5.33;100.00
75425;BME280;64007;50.632;13.700;2024-02-21T01:28:41;98571.66;;;5.28;100.00
75425;BME280;64007;50.632;13.700;2024-02-21T01:31:07;98562.28;;;5.23;100.00
75425;BME280;64007;50.632;13.700;2024-02-21T01:33:33;98567.56;;;5.23;100.00
75425;BME280;64007;50.632;13.700;2024-02-21T01:36:04;98558.72;;;5.24;100.00
75425;BME280;64007;50.632;13.700;2024-02-21T01:38:32;98560.72;;;5.19;100.00
75425;BME280;64007;50.632;13.700;2024-02-21T01:40:58;98550.31;;;5.16;100.00
75425;BME280;64007;50.632;13.700;2024-02-21T01:43:23;98549.72;;;5.28;100.00
75425;BME280;64007;50.632;13.700;2024-02-21T01:45:50;98544.44;;;5.28;100.00
75425;BME280;64007;50.632;13.700;2024-02-21T01:48:18;98544.19;;;5.15;100.00
75425;BME280;64007;50.632;13.700;2024-02-21T01:50:47;98541.31;;;5.20;100.00
75425;BME280;64007;50.632;13.700;2024-02-21T01:53:37;98538.78;;;5.18;100.00
75425;BME280;64007;50.632;13.700;2024-02-21T01:56:02;98532.97;;;5.12;100.00
75425;BME280;64007;50.632;13.700;2024-02-21T01:58:28;98539.78;;;5.16;100.00
75425;BME280;64007;50.632;13.700;2024-02-21T02:00:56;98528.84;;;5.06;100.00
75425;BME280;64007;50.632;13.700;2024-02-21T02:03:22;98517.78;;;4.99;100.00
75425;BME280;64007;50.632;13.700;2024-02-21T02:05:49;98534.50;;;4.98;100.00
75425;BME280;64007;50.632;13.700;2024-02-21T02:08:16;98522.44;;;4.94;100.00
75425;BME280;64007;50.632;13.700;2024-02-21T02:10:42;98524.75;;;5.00;100.00
75425;BME280;64007;50.632;13.700;2024-02-21T02:13:08;98522.19;;;4.99;100.00
75425;BME280;64007;50.632;13.700;2024-02-21T02:15:47;98521.97;;;4.86;100.00
75425;BME280;64007;50.632;13.700;2024-02-21T02:18:14;98523.25;;;4.78;100.00
75425;BME280;64007;50.632;13.700;2024-02-21T02:20:40;98515.41;;;4.76;100.00
75425;BME280;64007;50.632;13.700;2024-02-21T02:23:30;98507.66;;;4.73;100.00
75425;BME280;64007;50.632;13.700;2024-02-21T02:25:57;98495.59;;;4.69;100.00
75425;BME280;64007;50.632;13.700;2024-02-21T02:28:23;98500.94;;;4.67;100.00
75425;BME280;64007;50.632;13.700;2024-02-21T02:30:49;98499.75;;;4.73;100.00
75425;BME280;64007;50.632;13.700;2024-02-21T02:33:15;98493.09;;;4.66;100.00
75425;BME280;64007;50.632;13.700;2024-02-21T02:35:43;98506.91;;;4.71;100.00
75425;BME280;64007;50.632;13.700;2024-02-21T02:38:08;98493.72;;;4.71;100.00
75425;BME280;64007;50.632;13.700;2024-02-21T02:40:35;98492.78;;;4.72;100.00
75425;BME280;64007;50.632;13.700;2024-02-21T02:43:01;98488.91;;;4.79;100.00
75425;BME280;64007;50.632;13.700;2024-02-21T02:45:27;98487.13;;;4.80;100.00
75425;BME280;64007;50.632;13.700;2024-02-21T02:47:53;98485.22;;;4.83;100.00
75425;BME280;64007;50.632;13.700;2024-02-21T02:50:26;98477.31;;;4.83;100.00
75425;BME280;64007;50.632;13.700;2024-02-21T02:52:53;98480.72;;;4.85;100.00
75425;BME280;64007;50.632;13.700;2024-02-21T02:55:19;98468.94;;;4.92;100.00
75425;BME280;64007;50.632;13.700;2024-02-21T02:57:44;98476.78;;;4.94;100.00
75425;BME280;64007;50.632;13.700;2024-02-21T03:00:11;98474.22;;;4.92;100.00
75425;BME280;64007;50.632;13.700;2024-02-21T03:02:39;98483.22;;;4.88;100.00
75425;BME280;64007;50.632;13.700;2024-02-21T03:05:13;98475.94;;;4.93;100.00
75425;BME280;64007;50.632;13.700;2024-02-21T03:07:40;98473.06;;;4.98;100.00
75425;BME280;64007;50.632;13.700;2024-02-21T03:10:06;98468.63;;;4.98;100.00
75425;BME280;64007;50.632;13.700;2024-02-21T03:12:32;98462.03;;;5.07;100.00
75425;BME280;64007;50.632;13.700;2024-02-21T03:14:58;98462.28;;;5.02;100.00
75425;BME280;64007;50.632;13.700;2024-02-21T03:17:24;98454.38;;;5.02;100.00
75425;BME280;64007;50.632;13.700;2024-02-21T03:19:50;98457.84;;;5.03;100.00
75425;BME280;64007;50.632;13.700;2024-02-21T03:22:18;98453.59;;;5.00;100.00
75425;BME280;64007;50.632;13.700;2024-02-21T03:24:44;98452.66;;;5.01;100.00
75425;BME280;64007;50.632;13.700;2024-02-21T03:27:10;98449.09;;;5.02;100.00
75425;BME280;64007;50.632;13.700;2024-02-21T03:29:36;98448.56;;;4.96;100.00
75425;BME280;64007;50.632;13.700;2024-02-21T03:32:02;98451.28;;;4.94;100.00
75425;BME280;64007;50.632;13.700;2024-02-21T03:34:27;98449.41;;;4.96;100.00
75425;BME280;64007;50.632;13.700;2024-02-21T03:36:53;98450.34;;;4.95;100.00
75425;BME280;64007;50.632;13.700;2024-02-21T03:39:18;98447.56;;;4.98;100.00
75425;BME280;64007;50.632;13.700;2024-02-21T03:41:44;98443.38;;;4.94;100.00
75425;BME280;64007;50.632;13.700;2024-02-21T03:44:10;98437.16;;;4.95;100.00
75425;BME280;64007;50.632;13.700;2024-02-21T03:46:36;98448.56;;;4.96;100.00
75425;BME280;64007;50.632;13.700;2024-02-21T03:49:01;98438.88;;;4.96;100.00
75425;BME280;64007;50.632;13.700;2024-02-21T03:51:27;98440.66;;;4.96;100.00
75425;BME280;64007;50.632;13.700;2024-02-21T03:53:52;98438.56;;;5.02;100.00
75425;BME280;64007;50.632;13.700;2024-02-21T03:56:18;98446.91;;;5.11;100.00
75425;BME280;64007;50.632;13.700;2024-02-21T03:58:44;98440.00;;;5.08;100.00
75425;BME280;64007;50.632;13.700;2024-02-21T04:01:10;98438.38;;;5.06;100.00
75425;BME280;64007;50.632;13.700;2024-02-21T04:03:35;98438.78;;;4.98;100.00
75425;BME280;64007;50.632;13.700;2024-02-21T04:06:01;98437.88;;;4.99;100.00
75425;BME280;64007;50.632;13.700;2024-02-21T04:08:27;98437.38;;;5.08;100.00
75425;BME280;64007;50.632;13.700;2024-02-21T04:10:52;98434.81;;;5.07;100.00
75425;BME280;64007;50.632;13.700;2024-02-21T04:13:18;98432.97;;;5.09;100.00
75425;BME280;64007;50.632;13.700;2024-02-21T04:15:44;98439.00;;;5.11;100.00
75425;BME280;64007;50.632;13.700;2024-02-21T04:18:09;98434.34;;;5.16;100.00
75425;BME280;64007;50.632;13.700;2024-02-21T04:20:35;98438.22;;;5.09;100.00
75425;BME280;64007;50.632;13.700;2024-02-21T04:23:01;98447.34;;;5.19;100.00
75425;BME280;64007;50.632;13.700;2024-02-21T04:25:26;98431.25;;;5.08;100.00
75425;BME280;64007;50.632;13.700;2024-02-21T04:27:52;98435.75;;;5.06;100.00
75425;BME280;64007;50.632;13.700;2024-02-21T04:30:18;98436.53;;;5.08;100.00
75425;BME280;64007;50.632;13.700;2024-02-21T04:32:43;98436.53;;;5.08;100.00
75425;BME280;64007;50.632;13.700;2024-02-21T04:35:09;98428.28;;;5.14;100.00
75425;BME280;64007;50.632;13.700;2024-02-21T04:37:35;98429.41;;;5.10;100.00
75425;BME280;64007;50.632;13.700;2024-02-21T04:40:01;98428.63;;;5.08;100.00
75425;BME280;64007;50.632;13.700;2024-02-21T04:42:26;98424.44;;;5.03;100.00
75425;BME280;64007;50.632;13.700;2024-02-21T04:44:52;98428.16;;;4.99;100.00
75425;BME280;64007;50.632;13.700;2024-02-21T04:47:18;98426.16;;;5.04;100.00
75425;BME280;64007;50.632;13.700;2024-02-21T04:49:45;98426.84;;;5.08;100.00
75425;BME280;64007;50.632;13.700;2024-02-21T04:52:11;98424.44;;;5.03;100.00
75425;BME280;64007;50.632;13.700;2024-02-21T04:54:37;98424.28;;;5.07;100.00
75425;BME280;64007;50.632;13.700;2024-02-21T04:57:03;98415.75;;;5.01;100.00
75425;BME280;64007;50.632;13.700;2024-02-21T04:59:29;98415.75;;;5.01;100.00
75425;BME280;64007;50.632;13.700;2024-02-21T05:01:55;98429.78;;;5.02;100.00
75425;BME280;64007;50.632;13.700;2024-02-21T05:04:21;98418.00;;;5.09;100.00
75425;BME280;64007;50.632;13.700;2024-02-21T05:06:46;98416.81;;;5.15;100.00
75425;BME280;64007;50.632;13.700;2024-02-21T05:09:12;98415.72;;;5.19;100.00
75425;BME280;64007;50.632;13.700;2024-02-21T05:11:38;98408.06;;;5.14;100.00
75425;BME280;64007;50.632;13.700;2024-02-21T05:14:04;98406.97;;;5.18;100.00
75425;BME280;64007;50.632;13.700;2024-02-21T05:16:31;98402.53;;;5.19;100.00
75425;BME280;64007;50.632;13.700;2024-02-21T05:18:57;98405.13;;;5.20;100.00
75425;BME280;64007;50.632;13.700;2024-02-21T05:21:23;98405.97;;;5.21;100.00
75425;BME280;64007;50.632;13.700;2024-02-21T05:23:54;98407.81;;;5.19;100.00
75425;BME280;64007;50.632;13.700;2024-02-21T05:26:20;98399.91;;;5.19;100.00
75425;BME280;64007;50.632;13.700;2024-02-21T05:28:47;98411.09;;;5.24;100.00
75425;BME280;64007;50.632;13.700;2024-02-21T05:31:12;98403.94;;;5.26;100.00
75425;BME280;64007;50.632;13.700;2024-02-21T05:33:40;98401.47;;;5.23;100.00
75425;BME280;64007;50.632;13.700;2024-02-21T05:36:05;98393.88;;;5.17;100.00
75425;BME280;64007;50.632;13.700;2024-02-21T05:38:31;98400.53;;;5.24;100.00
75425;BME280;64007;50.632;13.700;2024-02-21T05:40:57;98387.81;;;5.15;100.00
75425;BME280;64007;50.632;13.700;2024-02-21T05:43:23;98392.81;;;5.21;100.00
75425;BME280;64007;50.632;13.700;2024-02-21T05:45:49;98387.66;;;5.18;100.00
75425;BME280;64007;50.632;13.700;2024-02-21T05:48:14;98391.41;;;5.14;100.00
75425;BME280;64007;50.632;13.700;2024-02-21T05:50:40;98390.28;;;5.18;100.00
75425;BME280;64007;50.632;13.700;2024-02-21T05:53:06;98388.69;;;5.15;100.00
75425;BME280;64007;50.632;13.700;2024-02-21T05:55:31;98387.75;;;5.16;100.00
75425;BME280;64007;50.632;13.700;2024-02-21T05:57:57;98390.28;;;5.18;100.00
75425;BME280;64007;50.632;13.700;2024-02-21T06:00:23;98385.19;;;5.15;100.00
75425;BME280;64007;50.632;13.700;2024-02-21T06:02:49;98382.13;;;5.07;100.00
75425;BME280;64007;50.632;13.700;2024-02-21T06:05:15;98385.28;;;5.13;100.00
75425;BME280;64007;50.632;13.700;2024-02-21T06:07:41;98376.84;;;5.07;100.00
75425;BME280;64007;50.632;13.700;2024-02-21T06:10:07;98381.00;;;5.11;100.00
75425;BME280;64007;50.632;13.700;2024-02-21T06:12:33;98386.97;;;5.14;100.00
75425;BME280;64007;50.632;13.700;2024-02-21T06:14:59;98380.16;;;5.10;100.00
75425;BME280;64007;50.632;13.700;2024-02-21T06:17:25;98381.63;;;5.16;100.00
75425;BME280;64007;50.632;13.700;2024-02-21T06:19:50;98376.72;;;5.25;100.00
75425;BME280;64007;50.632;13.700;2024-02-21T06:22:16;98376.72;;;5.25;100.00
75425;BME280;64007;50.632;13.700;2024-02-21T06:24:42;98376.13;;;5.20;100.00
75425;BME280;64007;50.632;13.700;2024-02-21T06:27:08;98384.09;;;5.19;100.00
75425;BME280;64007;50.632;13.700;2024-02-21T06:29:34;98377.88;;;5.20;100.00
75425;BME280;64007;50.632;13.700;2024-02-21T06:32:00;98376.97;;;5.21;100.00
75425;BME280;64007;50.632;13.700;2024-02-21T06:34:26;98365.50;;;5.22;100.00
75425;BME280;64007;50.632;13.700;2024-02-21T06:36:52;98358.19;;;5.27;100.00
75425;BME280;64007;50.632;13.700;2024-02-21T06:39:17;98352.75;;;5.30;100.00
75425;BME280;64007;50.632;13.700;2024-02-21T06:41:43;98353.19;;;5.38;100.00
75425;BME280;64007;50.632;13.700;2024-02-21T06:44:09;98361.94;;;5.39;100.00
75425;BME280;64007;50.632;13.700;2024-02-21T06:46:35;98369.94;;;5.37;100.00
75425;BME280;64007;50.632;13.700;2024-02-21T06:49:01;98367.97;;;5.41;100.00
75425;BME280;64007;50.632;13.700;2024-02-21T06:51:29;98366.78;;;5.46;100.00
75425;BME280;64007;50.632;13.700;2024-02-21T06:53:55;98363.47;;;5.58;100.00
75425;BME280;64007;50.632;13.700;2024-02-21T06:56:23;98364.66;;;5.53;100.00
75425;BME280;64007;50.632;13.700;2024-02-21T06:58:57;98364.00;;;5.49;100.00
75425;BME280;64007;50.632;13.700;2024-02-21T07:01:24;98356.25;;;5.46;100.00
75425;BME280;64007;50.632;13.700;2024-02-21T07:03:50;98356.00;;;5.51;100.00
75425;BME280;64007;50.632;13.700;2024-02-21T07:06:16;98354.97;;;5.53;100.00
75425;BME280;64007;50.632;13.700;2024-02-21T07:08:41;98352.78;;;5.61;100.00
75425;BME280;64007;50.632;13.700;2024-02-21T07:11:07;98357.88;;;5.64;100.00
75425;BME280;64007;50.632;13.700;2024-02-21T07:13:33;98358.66;;;5.66;100.00
75425;BME280;64007;50.632;13.700;2024-02-21T07:15:59;98356.00;;;5.66;100.00
75425;BME280;64007;50.632;13.700;2024-02-21T07:18:24;98358.47;;;5.70;100.00
75425;BME280;64007;50.632;13.700;2024-02-21T07:20:53;98361.03;;;5.71;100.00
75425;BME280;64007;50.632;13.700;2024-02-21T07:23:18;98364.19;;;5.78;100.00
75425;BME280;64007;50.632;13.700;2024-02-21T07:25:44;98354.78;;;5.88;100.00
75425;BME280;64007;50.632;13.700;2024-02-21T07:28:10;98356.19;;;5.95;100.00
75425;BME280;64007;50.632;13.700;2024-02-21T07:30:36;98351.06;;;5.92;100.00
75425;BME280;64007;50.632;13.700;2024-02-21T07:33:02;98343.75;;;5.97;100.00
75425;BME280;64007;50.632;13.700;2024-02-21T07:35:27;98345.34;;;6.00;100.00
75425;BME280;64007;50.632;13.700;2024-02-21T07:37:53;98353.22;;;6.01;100.00
75425;BME280;64007;50.632;13.700;2024-02-21T07:40:19;98350.22;;;6.07;100.00
75425;BME280;64007;50.632;13.700;2024-02-21T07:42:44;98344.78;;;6.10;100.00
75425;BME280;64007;50.632;13.700;2024-02-21T07:45:10;98338.19;;;6.17;100.00
75425;BME280;64007;50.632;13.700;2024-02-21T07:47:36;98340.28;;;6.26;100.00
75425;BME280;64007;50.632;13.700;2024-02-21T07:50:03;98333.13;;;6.28;100.00
75425;BME280;64007;50.632;13.700;2024-02-21T07:52:29;98336.53;;;6.31;100.00
75425;BME280;64007;50.632;13.700;2024-02-21T07:54:55;98333.13;;;6.28;100.00
75425;BME280;64007;50.632;13.700;2024-02-21T07:57:21;98340.97;;;6.30;100.00
75425;BME280;64007;50.632;13.700;2024-02-21T07:59:47;98345.28;;;6.31;100.00
75425;BME280;64007;50.632;13.700;2024-02-21T08:02:14;98349.91;;;6.27;100.00
75425;BME280;64007;50.632;13.700;2024-02-21T08:04:40;98347.28;;;6.27;100.00
75425;BME280;64007;50.632;13.700;2024-02-21T08:07:05;98337.28;;;6.33;100.00
75425;BME280;64007;50.632;13.700;2024-02-21T08:09:31;98338.78;;;6.52;100.00
75425;BME280;64007;50.632;13.700;2024-02-21T08:11:57;98327.56;;;6.63;100.00
75425;BME280;64007;50.632;13.700;2024-02-21T08:14:23;98337.47;;;6.74;100.00
75425;BME280;64007;50.632;13.700;2024-02-21T08:16:52;98334.47;;;6.80;100.00
75425;BME280;64007;50.632;13.700;2024-02-21T08:19:20;98338.34;;;6.88;100.00
75425;BME280;64007;50.632;13.700;2024-02-21T08:21:45;98346.94;;;7.06;100.00
75425;BME280;64007;50.632;13.700;2024-02-21T08:24:14;98336.75;;;7.00;100.00
75425;BME280;64007;50.632;13.700;2024-02-21T08:26:44;98335.06;;;6.99;100.00
75425;BME280;64007;50.632;13.700;2024-02-21T08:29:11;98317.13;;;7.04;100.00
75425;BME280;64007;50.632;13.700;2024-02-21T08:31:37;98318.34;;;7.13;100.00
75425;BME280;64007;50.632;13.700;2024-02-21T08:34:03;98331.16;;;7.19;100.00
75425;BME280;64007;50.632;13.700;2024-02-21T08:36:36;98321.91;;;7.12;100.00
75425;BME280;64007;50.632;13.700;2024-02-21T08:39:02;98327.00;;;7.15;100.00
75425;BME280;64007;50.632;13.700;2024-02-21T08:41:30;98327.00;;;7.15;100.00
75425;BME280;64007;50.632;13.700;2024-02-21T08:43:56;98314.19;;;7.09;100.00
75425;BME280;64007;50.632;13.700;2024-02-21T08:46:25;98316.34;;;7.16;100.00
75425;BME280;64007;50.632;13.700;2024-02-21T08:48:51;98304.34;;;7.11;100.00
75425;BME280;64007;50.632;13.700;2024-02-21T08:51:17;98301.72;;;7.11;100.00
75425;BME280;64007;50.632;13.700;2024-02-21T08:53:46;98305.09;;;7.13;100.00
75425;BME280;64007;50.632;13.700;2024-02-21T08:56:12;98306.06;;;7.26;100.00
75425;BME280;64007;50.632;13.700;2024-02-21T08:58:39;98295.84;;;7.20;100.00
75425;BME280;64007;50.632;13.700;2024-02-21T09:01:06;98292.09;;;7.24;100.00
75425;BME280;64007;50.632;13.700;2024-02-21T09:03:33;98288.69;;;7.22;100.00
75425;BME280;64007;50.632;13.700;2024-02-21T09:06:02;98293.41;;;7.31;100.00
75425;BME280;64007;50.632;13.700;2024-02-21T09:08:28;98287.50;;;7.40;100.00
75425;BME280;64007;50.632;13.700;2024-02-21T09:10:53;98277.19;;;7.50;100.00
75425;BME280;64007;50.632;13.700;2024-02-21T09:13:19;98277.38;;;7.61;100.00
75425;BME280;64007;50.632;13.700;2024-02-21T09:15:45;98280.25;;;7.71;100.00
75425;BME280;64007;50.632;13.700;2024-02-21T09:18:10;98270.97;;;7.78;100.00
75425;BME280;64007;50.632;13.700;2024-02-21T09:20:36;98280.00;;;7.88;100.00
75425;BME280;64007;50.632;13.700;2024-02-21T09:23:02;98275.94;;;8.09;100.00
75425;BME280;64007;50.632;13.700;2024-02-21T09:25:27;98265.56;;;8.06;100.00
75425;BME280;64007;50.632;13.700;2024-02-21T09:27:54;98277.22;;;8.16;100.00
75425;BME280;64007;50.632;13.700;2024-02-21T09:30:20;98264.19;;;8.13;100.00
75425;BME280;64007;50.632;13.700;2024-02-21T09:32:47;98263.16;;;8.29;100.00
75425;BME280;64007;50.632;13.700;2024-02-21T09:35:12;98258.19;;;8.37;100.00
75425;BME280;64007;50.632;13.700;2024-02-21T09:37:39;98258.19;;;8.37;100.00
75425;BME280;64007;50.632;13.700;2024-02-21T09:40:05;98254.22;;;8.44;100.00
75425;BME280;64007;50.632;13.700;2024-02-21T09:42:39;98254.50;;;8.39;100.00
75425;BME280;64007;50.632;13.700;2024-02-21T09:45:08;98266.00;;;8.26;100.00
75425;BME280;64007;50.632;13.700;2024-02-21T09:50:41;98271.94;;;8.16;100.00
75425;BME280;64007;50.632;13.700;2024-02-21T09:53:12;98273.22;;;8.24;100.00
75425;BME280;64007;50.632;13.700;2024-02-21T09:55:38;98272.69;;;8.31;100.00
75425;BME280;64007;50.632;13.700;2024-02-21T09:58:07;98266.72;;;8.42;100.00
75425;BME280;64007;50.632;13.700;2024-02-21T10:00:33;98270.31;;;8.66;100.00
75425;BME280;64007;50.632;13.700;2024-02-21T10:02:59;98267.97;;;8.74;100.00
75425;BME280;64007;50.632;13.700;2024-02-21T10:05:25;98261.63;;;8.77;100.00
75425;BME280;64007;50.632;13.700;2024-02-21T10:07:51;98261.00;;;8.86;100.00
75425;BME280;64007;50.632;13.700;2024-02-21T10:10:17;98251.47;;;8.84;100.00
75425;BME280;64007;50.632;13.700;2024-02-21T10:12:50;98254.53;;;8.90;100.00
75425;BME280;64007;50.632;13.700;2024-02-21T10:15:21;98252.06;;;9.00;100.00
75425;BME280;64007;50.632;13.700;2024-02-21T10:17:58;98263.72;;;9.10;100.00
75425;BME280;64007;50.632;13.700;2024-02-21T10:20:24;98259.47;;;9.07;100.00
75425;BME280;64007;50.632;13.700;2024-02-21T10:23:02;98253.28;;;9.20;100.00
75425;BME280;64007;50.632;13.700;2024-02-21T10:25:29;98258.06;;;9.64;100.00
75425;BME280;64007;50.632;13.700;2024-02-21T10:27:56;98250.06;;;10.12;100.00
75425;BME280;64007;50.632;13.700;2024-02-21T10:30:22;98231.78;;;10.31;100.00
75425;BME280;64007;50.632;13.700;2024-02-21T10:32:52;98237.16;;;10.53;100.00
75425;BME280;64007;50.632;13.700;2024-02-21T10:35:29;98235.13;;;10.68;100.00
75425;BME280;64007;50.632;13.700;2024-02-21T10:37:56;98240.84;;;10.86;100.00
75425;BME280;64007;50.632;13.700;2024-02-21T10:40:26;98244.69;;;11.04;99.99
75425;BME280;64007;50.632;13.700;2024-02-21T10:42:58;98241.78;;;11.07;94.03
75425;BME280;64007;50.632;13.700;2024-02-21T10:45:45;98225.47;;;11.01;89.31
75425;BME280;64007;50.632;13.700;2024-02-21T10:48:12;98216.03;;;11.08;97.54
75425;BME280;64007;50.632;13.700;2024-02-21T10:50:59;98209.13;;;11.05;90.45
75425;BME280;64007;50.632;13.700;2024-02-21T10:58:40;98198.22;;;11.30;87.53
75425;BME280;64007;50.632;13.700;2024-02-21T11:01:07;98195.75;;;11.50;84.57
75425;BME280;64007;50.632;13.700;2024-02-21T11:03:33;98179.13;;;11.69;84.11
75425;BME280;64007;50.632;13.700;2024-02-21T11:05:59;98181.41;;;11.73;84.62
75425;BME280;64007;50.632;13.700;2024-02-21T11:08:25;98183.31;;;11.82;81.31
75425;BME280;64007;50.632;13.700;2024-02-21T11:10:57;98167.34;;;11.82;77.51
75425;BME280;64007;50.632;13.700;2024-02-21T11:13:32;98162.00;;;11.82;81.01
75425;BME280;64007;50.632;13.700;2024-02-21T11:16:10;98156.63;;;11.93;78.28
75425;BME280;64007;50.632;13.700;2024-02-21T11:18:37;98158.91;;;11.98;80.63
75425;BME280;64007;50.632;13.700;2024-02-21T11:21:03;98155.34;;;12.09;77.69
75425;BME280;64007;50.632;13.700;2024-02-21T11:23:32;98151.09;;;12.27;76.48
75425;BME280;64007;50.632;13.700;2024-02-21T11:26:07;98151.56;;;12.32;77.11
75425;BME280;64007;50.632;13.700;2024-02-21T11:28:33;98142.69;;;12.52;76.91
75425;BME280;64007;50.632;13.700;2024-02-21T11:31:12;98146.13;;;12.74;71.28
75425;BME280;64007;50.632;13.700;2024-02-21T11:33:42;98142.31;;;12.67;70.76
75425;BME280;64007;50.632;13.700;2024-02-21T11:36:08;98145.28;;;12.73;68.80
75425;BME280;64007;50.632;13.700;2024-02-21T11:38:34;98137.69;;;12.69;67.83
75425;BME280;64007;50.632;13.700;2024-02-21T11:41:00;98133.09;;;12.80;68.22
75425;BME280;64007;50.632;13.700;2024-02-21T11:43:25;98131.59;;;12.88;67.37
75425;BME280;64007;50.632;13.700;2024-02-21T11:45:59;98126.16;;;12.99;65.40
75425;BME280;64007;50.632;13.700;2024-02-21T11:48:25;98125.88;;;13.02;68.50
75425;BME280;64007;50.632;13.700;2024-02-21T11:50:55;98115.66;;;13.16;74.01
75425;BME280;64007;50.632;13.700;2024-02-21T11:53:21;98115.59;;;13.28;70.57
75425;BME280;64007;50.632;13.700;2024-02-21T11:55:47;98102.22;;;13.47;70.85
75425;BME280;64007;50.632;13.700;2024-02-21T11:58:13;98097.44;;;13.51;69.32
75425;BME280;64007;50.632;13.700;2024-02-21T12:00:38;98099.97;;;13.52;69.43
75425;BME280;64007;50.632;13.700;2024-02-21T12:03:05;98093.38;;;13.46;69.49
75425;BME280;64007;50.632;13.700;2024-02-21T12:05:31;98091.84;;;13.63;70.21
75425;BME280;64007;50.632;13.700;2024-02-21T12:07:57;98089.88;;;13.65;70.61
75425;BME280;64007;50.632;13.700;2024-02-21T12:10:26;98085.38;;;13.66;67.37
75425;BME280;64007;50.632;13.700;2024-02-21T12:13:08;98071.28;;;13.54;67.14
75425;BME280;64007;50.632;13.700;2024-02-21T12:15:34;98070.47;;;13.44;70.34
75425;BME280;64007;50.632;13.700;2024-02-21T12:18:00;98065.94;;;13.54;67.85
75425;BME280;64007;50.632;13.700;2024-02-21T12:20:26;98056.94;;;13.55;63.82
75425;BME280;64007;50.632;13.700;2024-02-21T12:22:52;98047.53;;;13.70;68.66
75425;BME280;64007;50.632;13.700;2024-02-21T12:25:22;98041.00;;;13.92;67.72
75425;BME280;64007;50.632;13.700;2024-02-21T12:27:48;98042.25;;;13.98;67.69
75425;BME280;64007;50.632;13.700;2024-02-21T12:30:15;98031.84;;;13.95;69.27
75425;BME280;64007;50.632;13.700;2024-02-21T12:32:41;98018.63;;;14.03;68.26
75425;BME280;64007;50.632;13.700;2024-02-21T12:35:07;98018.56;;;14.22;68.37
75425;BME280;64007;50.632;13.700;2024-02-21T12:37:33;98009.72;;;14.39;63.53
75425;BME280;64007;50.632;13.700;2024-02-21T12:39:59;98012.41;;;14.12;66.25
75425;BME280;64007;50.632;13.700;2024-02-21T12:42:25;98005.66;;;14.08;67.95
75425;BME280;64007;50.632;13.700;2024-02-21T12:44:52;97999.00;;;14.22;68.29
75425;BME280;64007;50.632;13.700;2024-02-21T12:47:18;98006.91;;;14.14;64.89
75425;BME280;64007;50.632;13.700;2024-02-21T12:49:45;98005.47;;;14.19;64.19
75425;BME280;64007;50.632;13.700;2024-02-21T12:52:11;97991.50;;;14.25;66.29
75425;BME280;64007;50.632;13.700;2024-02-21T12:54:37;97990.72;;;14.15;64.23
75425;BME280;64007;50.632;13.700;2024-02-21T12:57:03;97987.25;;;14.32;64.61